sensor_id;sensor_type;location;lat;lon;timestamp;temperature;humidity
38131;DHT22;23947;51.894;4.622;2022-07-12T00:00:53;18.00;1.00
38131;DHT22;23947;51.894;4.622;2022-07-12T00:03:19;17.90;1.00
38131;DHT22;23947;51.894;4.622;2022-07-12T00:05:45;17.90;1.00
38131;DHT22;23947;51.894;4.622;2022-07-12T00:08:11;17.90;1.00
38131;DHT22;23947;51.894;4.622;2022-07-12T00:10:36;17.90;1.00
38131;DHT22;23947;51.894;4.622;2022-07-12T00:13:02;17.90;1.00
38131;DHT22;23947;51.894;4.622;2022-07-12T00:15:28;17.80;1.00
38131;DHT22;23947;51.894;4.622;2022-07-12T00:17:54;17.90;1.00
38131;DHT22;23947;51.894;4.622;2022-07-12T00:20:19;17.90;1.00
38131;DHT22;23947;51.894;4.622;2022-07-12T00:22:45;17.90;1.00
38131;DHT22;23947;51.894;4.622;2022-07-12T00:25:11;17.90;1.00
38131;DHT22;23947;51.894;4.622;2022-07-12T00:27:37;17.90;1.00
38131;DHT22;23947;51.894;4.622;2022-07-12T00:30:03;17.90;1.00
38131;DHT22;23947;51.894;4.622;2022-07-12T00:32:29;17.80;1.00
38131;DHT22;23947;51.894;4.622;2022-07-12T00:34:54;17.80;1.00
38131;DHT22;23947;51.894;4.622;2022-07-12T00:37:20;17.80;1.00
38131;DHT22;23947;51.894;4.622;2022-07-12T00:39:45;17.80;1.00
38131;DHT22;23947;51.894;4.622;2022-07-12T00:42:11;17.80;1.00
38131;DHT22;23947;51.894;4.622;2022-07-12T00:44:37;17.80;1.00
38131;DHT22;23947;51.894;4.622;2022-07-12T00:47:02;17.80;1.00
38131;DHT22;23947;51.894;4.622;2022-07-12T00:49:28;17.80;1.00
38131;DHT22;23947;51.894;4.622;2022-07-12T00:51:54;17.80;1.00
38131;DHT22;23947;51.894;4.622;2022-07-12T00:54:20;17.80;1.00
38131;DHT22;23947;51.894;4.622;2022-07-12T00:56:46;17.90;1.00
38131;DHT22;23947;51.894;4.622;2022-07-12T00:59:11;17.90;1.00
38131;DHT22;23947;51.894;4.622;2022-07-12T01:01:37;17.80;1.00
38131;DHT22;23947;51.894;4.622;2022-07-12T01:04:03;17.80;1.00
38131;DHT22;23947;51.894;4.622;2022-07-12T01:06:29;17.80;1.00
38131;DHT22;23947;51.894;4.622;2022-07-12T01:08:56;17.70;1.00
38131;DHT22;23947;51.894;4.622;2022-07-12T01:11:21;17.70;1.00
38131;DHT22;23947;51.894;4.622;2022-07-12T01:13:47;17.60;1.00
38131;DHT22;23947;51.894;4.622;2022-07-12T01:16:13;17.50;1.00
38131;DHT22;23947;51.894;4.622;2022-07-12T01:18:39;17.50;1.00
38131;DHT22;23947;51.894;4.622;2022-07-12T01:21:06;17.40;1.00
38131;DHT22;23947;51.894;4.622;2022-07-12T01:23:32;17.40;1.00
38131;DHT22;23947;51.894;4.622;2022-07-12T01:25:59;17.40;1.00
38131;DHT22;23947;51.894;4.622;2022-07-12T01:28:25;17.40;1.00
38131;DHT22;23947;51.894;4.622;2022-07-12T01:30:50;17.40;1.00
38131;DHT22;23947;51.894;4.622;2022-07-12T01:33:16;17.30;1.00
38131;DHT22;23947;51.894;4.622;2022-07-12T01:35:42;17.30;1.00
38131;DHT22;23947;51.894;4.622;2022-07-12T01:38:07;17.30;1.00
38131;DHT22;23947;51.894;4.622;2022-07-12T01:40:33;17.30;1.00
38131;DHT22;23947;51.894;4.622;2022-07-12T01:43:01;17.30;1.00
38131;DHT22;23947;51.894;4.622;2022-07-12T01:45:27;17.30;1.00
38131;DHT22;23947;51.894;4.622;2022-07-12T01:47:52;17.30;1.00
38131;DHT22;23947;51.894;4.622;2022-07-12T01:50:18;17.30;1.00
38131;DHT22;23947;51.894;4.622;2022-07-12T01:52:44;17.20;1.00
38131;DHT22;23947;51.894;4.622;2022-07-12T01:55:10;17.20;1.00
38131;DHT22;23947;51.894;4.622;2022-07-12T01:57:37;17.20;1.00
38131;DHT22;23947;51.894;4.622;2022-07-12T02:00:05;17.20;1.00
38131;DHT22;23947;51.894;4.622;2022-07-12T02:02:32;17.30;1.00
38131;DHT22;23947;51.894;4.622;2022-07-12T02:05:01;17.20;1.00
38131;DHT22;23947;51.894;4.622;2022-07-12T02:07:27;17.10;1.00
38131;DHT22;23947;51.894;4.622;2022-07-12T02:09:53;17.20;1.00
38131;DHT22;23947;51.894;4.622;2022-07-12T02:12:19;17.20;1.00
38131;DHT22;23947;51.894;4.622;2022-07-12T02:14:44;17.10;1.00
38131;DHT22;23947;51.894;4.622;2022-07-12T02:17:10;17.10;1.00
38131;DHT22;23947;51.894;4.622;2022-07-12T02:19:35;17.10;1.00
38131;DHT22;23947;51.894;4.622;2022-07-12T02:22:01;17.00;1.00
38131;DHT22;23947;51.894;4.622;2022-07-12T02:24:26;17.00;1.00
38131;DHT22;23947;51.894;4.622;2022-07-12T02:26:52;17.00;1.00
38131;DHT22;23947;51.894;4.622;2022-07-12T02:29:17;17.00;1.00
38131;DHT22;23947;51.894;4.622;2022-07-12T02:31:43;16.90;1.00
38131;DHT22;23947;51.894;4.622;2022-07-12T02:34:08;16.90;1.00
38131;DHT22;23947;51.894;4.622;2022-07-12T02:36:34;16.90;1.00
38131;DHT22;23947;51.894;4.622;2022-07-12T02:39:00;16.90;1.00
38131;DHT22;23947;51.894;4.622;2022-07-12T02:41:30;16.90;1.00
38131;DHT22;23947;51.894;4.622;2022-07-12T02:43:55;16.90;1.00
38131;DHT22;23947;51.894;4.622;2022-07-12T02:46:21;16.80;1.00
38131;DHT22;23947;51.894;4.622;2022-07-12T02:48:47;16.80;1.00
38131;DHT22;23947;51.894;4.622;2022-07-12T02:51:12;16.80;1.00
38131;DHT22;23947;51.894;4.622;2022-07-12T02:53:38;16.80;1.00
38131;DHT22;23947;51.894;4.622;2022-07-12T02:56:04;16.80;1.00
38131;DHT22;23947;51.894;4.622;2022-07-12T02:58:29;16.90;1.00
38131;DHT22;23947;51.894;4.622;2022-07-12T03:00:55;16.80;1.00
38131;DHT22;23947;51.894;4.622;2022-07-12T03:03:21;16.90;1.00
38131;DHT22;23947;51.894;4.622;2022-07-12T03:05:46;16.80;1.00
38131;DHT22;23947;51.894;4.622;2022-07-12T03:08:12;16.80;1.00
38131;DHT22;23947;51.894;4.622;2022-07-12T03:10:38;16.90;1.00
38131;DHT22;23947;51.894;4.622;2022-07-12T03:13:04;16.80;1.00
38131;DHT22;23947;51.894;4.622;2022-07-12T03:15:30;16.80;1.00
38131;DHT22;23947;51.894;4.622;2022-07-12T03:17:56;16.80;1.00
38131;DHT22;23947;51.894;4.622;2022-07-12T03:20:22;16.80;1.00
38131;DHT22;23947;51.894;4.622;2022-07-12T03:22:48;16.70;1.00
38131;DHT22;23947;51.894;4.622;2022-07-12T03:25:19;16.70;1.00
38131;DHT22;23947;51.894;4.622;2022-07-12T03:27:44;16.60;1.00
38131;DHT22;23947;51.894;4.622;2022-07-12T03:30:10;16.50;1.00
38131;DHT22;23947;51.894;4.622;2022-07-12T03:32:36;16.40;1.00
38131;DHT22;23947;51.894;4.622;2022-07-12T03:35:02;16.30;1.00
38131;DHT22;23947;51.894;4.622;2022-07-12T03:37:28;16.30;1.00
38131;DHT22;23947;51.894;4.622;2022-07-12T03:39:53;16.20;1.00
38131;DHT22;23947;51.894;4.622;2022-07-12T03:42:19;16.10;1.00
38131;DHT22;23947;51.894;4.622;2022-07-12T03:44:45;16.10;1.00
38131;DHT22;23947;51.894;4.622;2022-07-12T03:47:10;16.00;1.00
38131;DHT22;23947;51.894;4.622;2022-07-12T03:49:36;16.00;1.00
38131;DHT22;23947;51.894;4.622;2022-07-12T03:52:02;16.00;1.00
38131;DHT22;23947;51.894;4.622;2022-07-12T03:54:28;15.90;1.00
38131;DHT22;23947;51.894;4.622;2022-07-12T03:56:54;15.90;1.00
38131;DHT22;23947;51.894;4.622;2022-07-12T03:59:38;15.90;1.00
38131;DHT22;23947;51.894;4.622;2022-07-12T04:02:03;15.90;1.00
38131;DHT22;23947;51.894;4.622;2022-07-12T04:04:29;15.90;1.00
38131;DHT22;23947;51.894;4.622;2022-07-12T04:06:54;15.90;1.00
38131;DHT22;23947;51.894;4.622;2022-07-12T04:09:20;15.90;1.00
38131;DHT22;23947;51.894;4.622;2022-07-12T04:11:46;15.90;1.00
38131;DHT22;23947;51.894;4.622;2022-07-12T04:14:11;15.90;1.00
38131;DHT22;23947;51.894;4.622;2022-07-12T04:16:37;16.00;1.00
38131;DHT22;23947;51.894;4.622;2022-07-12T04:19:02;16.00;1.00
38131;DHT22;23947;51.894;4.622;2022-07-12T04:21:30;16.10;1.00
38131;DHT22;23947;51.894;4.622;2022-07-12T04:23:55;16.10;1.00
38131;DHT22;23947;51.894;4.622;2022-07-12T04:26:21;16.20;1.00
38131;DHT22;23947;51.894;4.622;2022-07-12T04:28:46;16.20;1.00
38131;DHT22;23947;51.894;4.622;2022-07-12T04:31:12;16.30;1.00
38131;DHT22;23947;51.894;4.622;2022-07-12T04:33:37;16.40;1.00
38131;DHT22;23947;51.894;4.622;2022-07-12T04:36:06;16.40;1.00
38131;DHT22;23947;51.894;4.622;2022-07-12T04:38:31;16.50;1.00
38131;DHT22;23947;51.894;4.622;2022-07-12T04:40:57;16.60;1.00
38131;DHT22;23947;51.894;4.622;2022-07-12T04:43:22;16.70;1.00
38131;DHT22;23947;51.894;4.622;2022-07-12T04:45:54;16.80;1.00
38131;DHT22;23947;51.894;4.622;2022-07-12T04:48:20;16.80;1.00
38131;DHT22;23947;51.894;4.622;2022-07-12T04:50:46;16.90;1.00
38131;DHT22;23947;51.894;4.622;2022-07-12T04:53:11;17.00;1.00
38131;DHT22;23947;51.894;4.622;2022-07-12T04:55:37;17.00;1.00
38131;DHT22;23947;51.894;4.622;2022-07-12T04:58:02;17.10;1.00
38131;DHT22;23947;51.894;4.622;2022-07-12T05:00:29;17.20;1.00
38131;DHT22;23947;51.894;4.622;2022-07-12T05:02:55;17.20;1.00
38131;DHT22;23947;51.894;4.622;2022-07-12T05:05:23;17.30;1.00
38131;DHT22;23947;51.894;4.622;2022-07-12T05:07:56;17.30;1.00
38131;DHT22;23947;51.894;4.622;2022-07-12T05:10:22;17.40;1.00
38131;DHT22;23947;51.894;4.622;2022-07-12T05:12:47;17.50;1.00
38131;DHT22;23947;51.894;4.622;2022-07-12T05:15:13;17.50;1.00
38131;DHT22;23947;51.894;4.622;2022-07-12T05:17:38;17.50;1.00
38131;DHT22;23947;51.894;4.622;2022-07-12T05:20:04;17.60;1.00
38131;DHT22;23947;51.894;4.622;2022-07-12T05:22:29;17.60;1.00
38131;DHT22;23947;51.894;4.622;2022-07-12T05:24:55;17.60;1.00
38131;DHT22;23947;51.894;4.622;2022-07-12T05:27:20;17.70;1.00
38131;DHT22;23947;51.894;4.622;2022-07-12T05:29:46;17.70;1.00
38131;DHT22;23947;51.894;4.622;2022-07-12T05:32:11;17.70;1.00
38131;DHT22;23947;51.894;4.622;2022-07-12T05:34:37;17.80;1.00
38131;DHT22;23947;51.894;4.622;2022-07-12T05:37:03;17.80;1.00
38131;DHT22;23947;51.894;4.622;2022-07-12T05:39:29;17.80;1.00
38131;DHT22;23947;51.894;4.622;2022-07-12T05:41:55;17.90;1.00
38131;DHT22;23947;51.894;4.622;2022-07-12T05:44:20;17.90;1.00
38131;DHT22;23947;51.894;4.622;2022-07-12T05:46:46;18.00;1.00
38131;DHT22;23947;51.894;4.622;2022-07-12T05:49:11;18.10;1.00
38131;DHT22;23947;51.894;4.622;2022-07-12T05:51:37;18.10;1.00
38131;DHT22;23947;51.894;4.622;2022-07-12T05:54:21;18.20;1.00
38131;DHT22;23947;51.894;4.622;2022-07-12T05:56:47;18.20;1.00
38131;DHT22;23947;51.894;4.622;2022-07-12T05:59:13;18.30;1.00
38131;DHT22;23947;51.894;4.622;2022-07-12T06:01:42;18.30;1.00
38131;DHT22;23947;51.894;4.622;2022-07-12T06:04:07;18.40;1.00
38131;DHT22;23947;51.894;4.622;2022-07-12T06:06:33;18.50;1.00
38131;DHT22;23947;51.894;4.622;2022-07-12T06:08:58;18.50;1.00
38131;DHT22;23947;51.894;4.622;2022-07-12T06:11:24;18.50;1.00
38131;DHT22;23947;51.894;4.622;2022-07-12T06:13:49;18.60;1.00
38131;DHT22;23947;51.894;4.622;2022-07-12T06:16:16;18.60;1.00
38131;DHT22;23947;51.894;4.622;2022-07-12T06:18:41;18.70;1.00
38131;DHT22;23947;51.894;4.622;2022-07-12T06:21:07;18.70;1.00
38131;DHT22;23947;51.894;4.622;2022-07-12T06:23:35;18.80;1.00
38131;DHT22;23947;51.894;4.622;2022-07-12T06:26:01;18.80;1.00
38131;DHT22;23947;51.894;4.622;2022-07-12T06:28:27;18.80;1.00
38131;DHT22;23947;51.894;4.622;2022-07-12T06:30:52;18.80;1.00
38131;DHT22;23947;51.894;4.622;2022-07-12T06:33:18;18.90;1.00
38131;DHT22;23947;51.894;4.622;2022-07-12T06:35:43;18.90;1.00
38131;DHT22;23947;51.894;4.622;2022-07-12T06:38:09;19.00;1.00
38131;DHT22;23947;51.894;4.622;2022-07-12T06:40:34;19.00;1.00
38131;DHT22;23947;51.894;4.622;2022-07-12T06:43:00;19.00;1.00
38131;DHT22;23947;51.894;4.622;2022-07-12T06:45:26;19.10;1.00
38131;DHT22;23947;51.894;4.622;2022-07-12T06:47:52;19.20;1.00
38131;DHT22;23947;51.894;4.622;2022-07-12T06:50:17;19.30;1.00
38131;DHT22;23947;51.894;4.622;2022-07-12T06:52:43;19.40;1.00
38131;DHT22;23947;51.894;4.622;2022-07-12T06:55:08;19.40;1.00
38131;DHT22;23947;51.894;4.622;2022-07-12T06:57:34;19.50;1.00
38131;DHT22;23947;51.894;4.622;2022-07-12T07:00:00;19.60;1.00
38131;DHT22;23947;51.894;4.622;2022-07-12T07:02:26;19.60;1.00
38131;DHT22;23947;51.894;4.622;2022-07-12T07:04:51;19.60;1.00
38131;DHT22;23947;51.894;4.622;2022-07-12T07:07:17;19.70;1.00
38131;DHT22;23947;51.894;4.622;2022-07-12T07:09:42;19.80;1.00
38131;DHT22;23947;51.894;4.622;2022-07-12T07:12:08;19.90;1.00
38131;DHT22;23947;51.894;4.622;2022-07-12T07:14:34;20.00;1.00
38131;DHT22;23947;51.894;4.622;2022-07-12T07:16:59;20.00;1.00
38131;DHT22;23947;51.894;4.622;2022-07-12T07:19:25;20.10;1.00
38131;DHT22;23947;51.894;4.622;2022-07-12T07:21:55;20.20;1.00
38131;DHT22;23947;51.894;4.622;2022-07-12T07:24:20;20.20;1.00
38131;DHT22;23947;51.894;4.622;2022-07-12T07:26:46;20.30;1.00
38131;DHT22;23947;51.894;4.622;2022-07-12T07:29:12;20.40;1.00
38131;DHT22;23947;51.894;4.622;2022-07-12T07:31:56;20.50;1.00
38131;DHT22;23947;51.894;4.622;2022-07-12T07:34:21;20.60;1.00
38131;DHT22;23947;51.894;4.622;2022-07-12T07:36:49;20.70;1.00
38131;DHT22;23947;51.894;4.622;2022-07-12T07:39:15;20.80;1.00
38131;DHT22;23947;51.894;4.622;2022-07-12T07:41:40;20.90;1.00
38131;DHT22;23947;51.894;4.622;2022-07-12T07:44:06;21.00;1.00
38131;DHT22;23947;51.894;4.622;2022-07-12T07:46:31;21.10;1.00
38131;DHT22;23947;51.894;4.622;2022-07-12T07:48:57;21.10;1.00
38131;DHT22;23947;51.894;4.622;2022-07-12T07:51:22;21.10;1.00
38131;DHT22;23947;51.894;4.622;2022-07-12T07:53:48;21.20;1.00
38131;DHT22;23947;51.894;4.622;2022-07-12T07:56:13;21.20;1.00
38131;DHT22;23947;51.894;4.622;2022-07-12T07:58:39;21.20;1.00
38131;DHT22;23947;51.894;4.622;2022-07-12T08:01:04;21.20;1.00
38131;DHT22;23947;51.894;4.622;2022-07-12T08:03:30;21.20;1.00
38131;DHT22;23947;51.894;4.622;2022-07-12T08:05:55;21.20;1.00
38131;DHT22;23947;51.894;4.622;2022-07-12T08:08:22;21.20;1.00
38131;DHT22;23947;51.894;4.622;2022-07-12T08:10:49;21.20;1.00
38131;DHT22;23947;51.894;4.622;2022-07-12T08:13:14;21.20;1.00
38131;DHT22;23947;51.894;4.622;2022-07-12T08:15:40;21.20;1.00
38131;DHT22;23947;51.894;4.622;2022-07-12T08:18:09;21.20;1.00
38131;DHT22;23947;51.894;4.622;2022-07-12T08:20:34;21.40;1.00
38131;DHT22;23947;51.894;4.622;2022-07-12T08:23:00;21.40;1.00
38131;DHT22;23947;51.894;4.622;2022-07-12T08:25:25;21.50;1.00
38131;DHT22;23947;51.894;4.622;2022-07-12T08:27:51;21.50;1.00
38131;DHT22;23947;51.894;4.622;2022-07-12T08:30:17;21.50;1.00
38131;DHT22;23947;51.894;4.622;2022-07-12T08:32:46;21.50;1.00
38131;DHT22;23947;51.894;4.622;2022-07-12T08:35:12;21.50;1.00
38131;DHT22;23947;51.894;4.622;2022-07-12T08:37:38;21.60;1.00
38131;DHT22;23947;51.894;4.622;2022-07-12T08:40:03;21.60;1.00
38131;DHT22;23947;51.894;4.622;2022-07-12T08:42:30;21.70;1.00
38131;DHT22;23947;51.894;4.622;2022-07-12T08:44:56;21.80;1.00
38131;DHT22;23947;51.894;4.622;2022-07-12T08:47:22;21.90;1.00
38131;DHT22;23947;51.894;4.622;2022-07-12T08:50:30;22.10;1.00
38131;DHT22;23947;51.894;4.622;2022-07-12T08:52:40;22.20;1.00
38131;DHT22;23947;51.894;4.622;2022-07-12T08:57:45;22.50;1.00
38131;DHT22;23947;51.894;4.622;2022-07-12T09:00:11;22.50;1.00
38131;DHT22;23947;51.894;4.622;2022-07-12T09:02:59;22.60;1.00
38131;DHT22;23947;51.894;4.622;2022-07-12T09:05:23;22.70;1.00
38131;DHT22;23947;51.894;4.622;2022-07-12T09:07:50;22.80;1.00
38131;DHT22;23947;51.894;4.622;2022-07-12T09:10:15;22.90;1.00
38131;DHT22;23947;51.894;4.622;2022-07-12T09:12:42;23.00;1.00
38131;DHT22;23947;51.894;4.622;2022-07-12T09:17:39;23.20;1.00
38131;DHT22;23947;51.894;4.622;2022-07-12T09:20:05;23.30;1.00
38131;DHT22;23947;51.894;4.622;2022-07-12T09:22:32;23.40;1.00
38131;DHT22;23947;51.894;4.622;2022-07-12T09:25:02;23.50;1.00
38131;DHT22;23947;51.894;4.622;2022-07-12T09:27:33;23.60;1.00
38131;DHT22;23947;51.894;4.622;2022-07-12T09:29:59;23.70;1.00
38131;DHT22;23947;51.894;4.622;2022-07-12T09:32:25;23.80;1.00
38131;DHT22;23947;51.894;4.622;2022-07-12T09:35:10;23.90;1.00
38131;DHT22;23947;51.894;4.622;2022-07-12T09:37:53;24.10;1.00
38131;DHT22;23947;51.894;4.622;2022-07-12T09:40:20;24.10;1.00
38131;DHT22;23947;51.894;4.622;2022-07-12T09:42:45;24.20;1.00
38131;DHT22;23947;51.894;4.622;2022-07-12T09:45:12;24.20;1.00
38131;DHT22;23947;51.894;4.622;2022-07-12T09:47:37;24.30;1.00
38131;DHT22;23947;51.894;4.622;2022-07-12T09:50:03;24.50;1.00
38131;DHT22;23947;51.894;4.622;2022-07-12T09:52:29;24.50;1.00
38131;DHT22;23947;51.894;4.622;2022-07-12T09:54:57;24.60;1.00
38131;DHT22;23947;51.894;4.622;2022-07-12T09:57:29;24.60;1.00
38131;DHT22;23947;51.894;4.622;2022-07-12T09:59:56;24.80;1.00
38131;DHT22;23947;51.894;4.622;2022-07-12T10:02:22;24.90;1.00
38131;DHT22;23947;51.894;4.622;2022-07-12T10:04:49;25.00;1.00
38131;DHT22;23947;51.894;4.622;2022-07-12T10:07:15;25.10;1.00
38131;DHT22;23947;51.894;4.622;2022-07-12T10:09:47;25.20;1.00
38131;DHT22;23947;51.894;4.622;2022-07-12T10:12:16;25.20;1.00
38131;DHT22;23947;51.894;4.622;2022-07-12T10:14:44;25.30;1.00
38131;DHT22;23947;51.894;4.622;2022-07-12T10:17:10;25.40;1.00
38131;DHT22;23947;51.894;4.622;2022-07-12T10:19:36;25.50;1.00
38131;DHT22;23947;51.894;4.622;2022-07-12T10:22:03;25.50;1.00
38131;DHT22;23947;51.894;4.622;2022-07-12T10:26:57;25.70;1.00
38131;DHT22;23947;51.894;4.622;2022-07-12T10:29:23;25.80;1.00
38131;DHT22;23947;51.894;4.622;2022-07-12T10:31:50;26.00;1.00
38131;DHT22;23947;51.894;4.622;2022-07-12T10:34:24;26.10;1.00
38131;DHT22;23947;51.894;4.622;2022-07-12T10:39:25;26.40;1.00
38131;DHT22;23947;51.894;4.622;2022-07-12T10:44:36;26.60;1.00
38131;DHT22;23947;51.894;4.622;2022-07-12T10:47:05;26.70;1.00
38131;DHT22;23947;51.894;4.622;2022-07-12T10:49:34;26.70;1.00
38131;DHT22;23947;51.894;4.622;2022-07-12T11:00:04;27.00;1.00
38131;DHT22;23947;51.894;4.622;2022-07-12T11:02:30;26.90;1.00
38131;DHT22;23947;51.894;4.622;2022-07-12T11:04:56;27.00;1.00
38131;DHT22;23947;51.894;4.622;2022-07-12T11:07:22;27.00;1.00
38131;DHT22;23947;51.894;4.622;2022-07-12T11:09:51;27.10;1.00
38131;DHT22;23947;51.894;4.622;2022-07-12T11:12:17;27.30;1.00
38131;DHT22;23947;51.894;4.622;2022-07-12T11:14:44;27.40;1.00
38131;DHT22;23947;51.894;4.622;2022-07-12T11:17:10;27.60;1.00
38131;DHT22;23947;51.894;4.622;2022-07-12T11:19:35;27.80;1.00
38131;DHT22;23947;51.894;4.622;2022-07-12T11:22:01;28.00;1.00
38131;DHT22;23947;51.894;4.622;2022-07-12T11:24:34;28.00;1.00
38131;DHT22;23947;51.894;4.622;2022-07-12T11:27:01;28.20;1.00
38131;DHT22;23947;51.894;4.622;2022-07-12T11:29:26;28.30;1.00
38131;DHT22;23947;51.894;4.622;2022-07-12T11:32:04;28.50;1.00
38131;DHT22;23947;51.894;4.622;2022-07-12T11:34:33;28.50;1.00
38131;DHT22;23947;51.894;4.622;2022-07-12T11:36:59;28.60;1.00
38131;DHT22;23947;51.894;4.622;2022-07-12T11:39:35;28.70;1.00
38131;DHT22;23947;51.894;4.622;2022-07-12T11:42:01;28.70;1.00
38131;DHT22;23947;51.894;4.622;2022-07-12T11:44:49;28.80;1.00
38131;DHT22;23947;51.894;4.622;2022-07-12T11:47:13;29.00;1.00
38131;DHT22;23947;51.894;4.622;2022-07-12T11:49:46;29.20;1.00
38131;DHT22;23947;51.894;4.622;2022-07-12T11:52:19;29.40;1.00
38131;DHT22;23947;51.894;4.622;2022-07-12T11:54:46;29.20;1.00
38131;DHT22;23947;51.894;4.622;2022-07-12T11:57:12;29.40;1.00
38131;DHT22;23947;51.894;4.622;2022-07-12T11:59:38;29.30;1.00
38131;DHT22;23947;51.894;4.622;2022-07-12T12:02:07;29.30;1.00
38131;DHT22;23947;51.894;4.622;2022-07-12T12:04:43;29.40;1.00
38131;DHT22;23947;51.894;4.622;2022-07-12T12:07:09;29.40;1.00
38131;DHT22;23947;51.894;4.622;2022-07-12T12:12:22;29.40;1.00
38131;DHT22;23947;51.894;4.622;2022-07-12T12:14:47;29.10;1.00
38131;DHT22;23947;51.894;4.622;2022-07-12T12:17:13;29.20;1.00
38131;DHT22;23947;51.894;4.622;2022-07-12T12:19:41;29.50;1.00
38131;DHT22;23947;51.894;4.622;2022-07-12T12:22:26;29.70;1.00
38131;DHT22;23947;51.894;4.622;2022-07-12T12:25:01;29.60;1.00
38131;DHT22;23947;51.894;4.622;2022-07-12T12:27:26;29.30;1.00
38131;DHT22;23947;51.894;4.622;2022-07-12T12:29:52;29.40;1.00
38131;DHT22;23947;51.894;4.622;2022-07-12T12:32:18;29.40;1.00
38131;DHT22;23947;51.894;4.622;2022-07-12T12:37:28;29.50;1.00
38131;DHT22;23947;51.894;4.622;2022-07-12T12:39:53;29.60;1.00
38131;DHT22;23947;51.894;4.622;2022-07-12T12:42:25;29.80;1.00
38131;DHT22;23947;51.894;4.622;2022-07-12T12:44:51;29.60;1.00
38131;DHT22;23947;51.894;4.622;2022-07-12T12:47:17;29.60;1.00
38131;DHT22;23947;51.894;4.622;2022-07-12T12:49:57;29.80;1.00
38131;DHT22;23947;51.894;4.622;2022-07-12T12:52:25;29.80;1.00
38131;DHT22;23947;51.894;4.622;2022-07-12T12:54:54;29.60;1.00
38131;DHT22;23947;51.894;4.622;2022-07-12T12:57:20;29.60;1.00
38131;DHT22;23947;51.894;4.622;2022-07-12T12:59:46;29.40;1.00
38131;DHT22;23947;51.894;4.622;2022-07-12T13:02:11;29.30;1.00
38131;DHT22;23947;51.894;4.622;2022-07-12T13:04:37;29.20;1.00
38131;DHT22;23947;51.894;4.622;2022-07-12T13:07:03;29.20;1.00
38131;DHT22;23947;51.894;4.622;2022-07-12T13:09:29;29.30;1.00
38131;DHT22;23947;51.894;4.622;2022-07-12T13:11:55;29.10;1.00
38131;DHT22;23947;51.894;4.622;2022-07-12T13:14:21;29.20;1.00
38131;DHT22;23947;51.894;4.622;2022-07-12T13:16:46;29.10;1.00
38131;DHT22;23947;51.894;4.622;2022-07-12T13:19:12;29.10;1.00
38131;DHT22;23947;51.894;4.622;2022-07-12T13:21:38;29.00;1.00
38131;DHT22;23947;51.894;4.622;2022-07-12T13:24:03;28.80;1.00
38131;DHT22;23947;51.894;4.622;2022-07-12T13:26:29;28.70;1.00
38131;DHT22;23947;51.894;4.622;2022-07-12T13:28:55;28.60;1.00
38131;DHT22;23947;51.894;4.622;2022-07-12T13:31:21;28.60;1.00
38131;DHT22;23947;51.894;4.622;2022-07-12T13:33:47;28.60;1.00
38131;DHT22;23947;51.894;4.622;2022-07-12T13:36:12;28.60;1.00
38131;DHT22;23947;51.894;4.622;2022-07-12T13:38:38;28.60;1.00
38131;DHT22;23947;51.894;4.622;2022-07-12T13:41:04;28.60;1.00
38131;DHT22;23947;51.894;4.622;2022-07-12T13:43:29;28.70;1.00
38131;DHT22;23947;51.894;4.622;2022-07-12T13:45:55;28.90;1.00
38131;DHT22;23947;51.894;4.622;2022-07-12T13:48:21;28.90;1.00
38131;DHT22;23947;51.894;4.622;2022-07-12T13:50:46;29.00;1.00
38131;DHT22;23947;51.894;4.622;2022-07-12T13:53:13;29.20;1.00
38131;DHT22;23947;51.894;4.622;2022-07-12T13:55:40;29.40;1.00
38131;DHT22;23947;51.894;4.622;2022-07-12T13:58:06;29.20;1.00
38131;DHT22;23947;51.894;4.622;2022-07-12T14:00:32;29.20;1.00
38131;DHT22;23947;51.894;4.622;2022-07-12T14:02:58;29.20;1.00
38131;DHT22;23947;51.894;4.622;2022-07-12T14:05:23;29.30;1.00
38131;DHT22;23947;51.894;4.622;2022-07-12T14:07:49;29.20;1.00
38131;DHT22;23947;51.894;4.622;2022-07-12T14:10:15;29.10;1.00
38131;DHT22;23947;51.894;4.622;2022-07-12T14:12:41;29.20;1.00
38131;DHT22;23947;51.894;4.622;2022-07-12T14:15:07;29.30;1.00
38131;DHT22;23947;51.894;4.622;2022-07-12T14:17:38;29.30;1.00
38131;DHT22;23947;51.894;4.622;2022-07-12T14:20:05;29.40;1.00
38131;DHT22;23947;51.894;4.622;2022-07-12T14:22:31;29.60;1.00
38131;DHT22;23947;51.894;4.622;2022-07-12T14:24:57;29.40;1.00
38131;DHT22;23947;51.894;4.622;2022-07-12T14:27:23;29.30;1.00
38131;DHT22;23947;51.894;4.622;2022-07-12T14:29:48;29.20;1.00
38131;DHT22;23947;51.894;4.622;2022-07-12T14:32:14;29.20;1.00
38131;DHT22;23947;51.894;4.622;2022-07-12T14:34:39;29.20;1.00
38131;DHT22;23947;51.894;4.622;2022-07-12T14:37:05;29.30;1.00
38131;DHT22;23947;51.894;4.622;2022-07-12T14:39:30;29.40;1.00
38131;DHT22;23947;51.894;4.622;2022-07-12T14:41:56;29.30;1.00
38131;DHT22;23947;51.894;4.622;2022-07-12T14:44:22;29.20;1.00
38131;DHT22;23947;51.894;4.622;2022-07-12T14:46:47;29.00;1.00
38131;DHT22;23947;51.894;4.622;2022-07-12T14:49:13;28.90;1.00
38131;DHT22;23947;51.894;4.622;2022-07-12T14:51:38;28.80;1.00
38131;DHT22;23947;51.894;4.622;2022-07-12T14:54:04;28.70;1.00
38131;DHT22;23947;51.894;4.622;2022-07-12T14:56:30;28.60;1.00
38131;DHT22;23947;51.894;4.622;2022-07-12T14:58:55;28.60;1.00
38131;DHT22;23947;51.894;4.622;2022-07-12T15:01:21;28.70;1.00
38131;DHT22;23947;51.894;4.622;2022-07-12T15:03:47;28.70;1.00
38131;DHT22;23947;51.894;4.622;2022-07-12T15:06:12;28.80;1.00
38131;DHT22;23947;51.894;4.622;2022-07-12T15:08:38;28.80;1.00
38131;DHT22;23947;51.894;4.622;2022-07-12T15:11:03;29.00;1.00
38131;DHT22;23947;51.894;4.622;2022-07-12T15:13:29;29.10;1.00
38131;DHT22;23947;51.894;4.622;2022-07-12T15:15:55;29.10;1.00
38131;DHT22;23947;51.894;4.622;2022-07-12T15:18:21;29.20;1.00
38131;DHT22;23947;51.894;4.622;2022-07-12T15:20:46;29.10;1.00
38131;DHT22;23947;51.894;4.622;2022-07-12T15:23:12;28.80;1.00
38131;DHT22;23947;51.894;4.622;2022-07-12T15:25:38;29.00;1.00
38131;DHT22;23947;51.894;4.622;2022-07-12T15:28:04;29.00;1.00
38131;DHT22;23947;51.894;4.622;2022-07-12T15:30:29;29.00;1.00
38131;DHT22;23947;51.894;4.622;2022-07-12T15:32:55;29.00;1.00
38131;DHT22;23947;51.894;4.622;2022-07-12T15:35:22;28.70;1.00
38131;DHT22;23947;51.894;4.622;2022-07-12T15:37:48;28.60;1.00
38131;DHT22;23947;51.894;4.622;2022-07-12T15:40:13;28.60;1.00
38131;DHT22;23947;51.894;4.622;2022-07-12T15:42:39;28.50;1.00
38131;DHT22;23947;51.894;4.622;2022-07-12T15:45:05;28.50;1.00
38131;DHT22;23947;51.894;4.622;2022-07-12T15:47:31;28.50;1.00
38131;DHT22;23947;51.894;4.622;2022-07-12T15:49:56;28.60;1.00
38131;DHT22;23947;51.894;4.622;2022-07-12T15:52:22;28.60;1.00
38131;DHT22;23947;51.894;4.622;2022-07-12T15:55:06;28.50;1.00
38131;DHT22;23947;51.894;4.622;2022-07-12T15:57:35;28.50;1.00
38131;DHT22;23947;51.894;4.622;2022-07-12T16:00:00;28.50;1.00
38131;DHT22;23947;51.894;4.622;2022-07-12T16:02:26;28.40;1.00
38131;DHT22;23947;51.894;4.622;2022-07-12T16:04:51;28.40;1.00
38131;DHT22;23947;51.894;4.622;2022-07-12T16:07:17;28.40;1.00